sensor_id;sensor_type;location;lat;lon;timestamp;P1;durP1;ratioP1;P2;durP2;ratioP2
50350;SDS011;36250;48.740;22.174;2023-06-10T00:02:25;13.07;;;5.45;;
50350;SDS011;36250;48.740;22.174;2023-06-10T00:04:51;8.80;;;5.50;;
50350;SDS011;36250;48.740;22.174;2023-06-10T00:07:17;8.20;;;5.85;;
50350;SDS011;36250;48.740;22.174;2023-06-10T00:09:43;12.45;;;5.57;;
50350;SDS011;36250;48.740;22.174;2023-06-10T00:12:08;10.93;;;6.30;;
50350;SDS011;36250;48.740;22.174;2023-06-10T00:14:37;13.90;;;5.25;;
50350;SDS011;36250;48.740;22.174;2023-06-10T00:17:04;5.97;;;5.35;;
50350;SDS011;36250;48.740;22.174;2023-06-10T00:19:35;8.05;;;5.10;;
50350;SDS011;36250;48.740;22.174;2023-06-10T00:22:06;10.85;;;5.00;;
50350;SDS011;36250;48.740;22.174;2023-06-10T00:24:32;9.27;;;4.68;;
50350;SDS011;36250;48.740;22.174;2023-06-10T00:26:57;10.00;;;5.15;;
50350;SDS011;36250;48.740;22.174;2023-06-10T00:29:23;15.30;;;5.80;;
50350;SDS011;36250;48.740;22.174;2023-06-10T00:31:48;11.60;;;5.53;;
50350;SDS011;36250;48.740;22.174;2023-06-10T00:34:13;14.40;;;5.15;;
50350;SDS011;36250;48.740;22.174;2023-06-10T00:36:39;10.75;;;6.10;;
50350;SDS011;36250;48.740;22.174;2023-06-10T00:39:04;11.55;;;5.85;;
50350;SDS011;36250;48.740;22.174;2023-06-10T00:41:30;11.95;;;5.28;;
50350;SDS011;36250;48.740;22.174;2023-06-10T00:43:55;11.15;;;6.05;;
50350;SDS011;36250;48.740;22.174;2023-06-10T00:46:21;7.53;;;5.72;;
50350;SDS011;36250;48.740;22.174;2023-06-10T00:48:48;9.88;;;5.35;;
50350;SDS011;36250;48.740;22.174;2023-06-10T00:51:14;13.48;;;6.05;;
50350;SDS011;36250;48.740;22.174;2023-06-10T00:53:41;9.43;;;5.55;;
50350;SDS011;36250;48.740;22.174;2023-06-10T00:56:07;14.10;;;6.00;;
50350;SDS011;36250;48.740;22.174;2023-06-10T00:58:33;6.47;;;5.47;;
50350;SDS011;36250;48.740;22.174;2023-06-10T01:00:59;6.15;;;5.15;;
50350;SDS011;36250;48.740;22.174;2023-06-10T01:03:24;7.25;;;5.00;;
50350;SDS011;36250;48.740;22.174;2023-06-10T01:08:43;12.85;;;5.00;;
50350;SDS011;36250;48.740;22.174;2023-06-10T01:11:24;10.38;;;4.50;;
50350;SDS011;36250;48.740;22.174;2023-06-10T01:13:53;13.80;;;6.53;;
50350;SDS011;36250;48.740;22.174;2023-06-10T01:16:21;8.02;;;4.85;;
50350;SDS011;36250;48.740;22.174;2023-06-10T01:18:47;11.63;;;5.80;;
50350;SDS011;36250;48.740;22.174;2023-06-10T01:21:19;8.68;;;5.15;;
50350;SDS011;36250;48.740;22.174;2023-06-10T01:23:46;8.00;;;4.30;;
50350;SDS011;36250;48.740;22.174;2023-06-10T01:26:12;14.85;;;4.85;;
50350;SDS011;36250;48.740;22.174;2023-06-10T01:28:44;5.75;;;4.85;;
50350;SDS011;36250;48.740;22.174;2023-06-10T01:33:59;12.65;;;4.65;;
50350;SDS011;36250;48.740;22.174;2023-06-10T01:36:25;5.47;;;4.97;;
50350;SDS011;36250;48.740;22.174;2023-06-10T01:38:52;7.75;;;4.60;;
50350;SDS011;36250;48.740;22.174;2023-06-10T01:41:18;6.55;;;5.28;;
50350;SDS011;36250;48.740;22.174;2023-06-10T01:43:46;10.50;;;4.13;;
50350;SDS011;36250;48.740;22.174;2023-06-10T01:46:12;7.65;;;4.47;;
50350;SDS011;36250;48.740;22.174;2023-06-10T01:48:38;6.07;;;4.10;;
50350;SDS011;36250;48.740;22.174;2023-06-10T01:51:04;7.20;;;3.85;;
50350;SDS011;36250;48.740;22.174;2023-06-10T01:53:30;10.25;;;4.57;;
50350;SDS011;36250;48.740;22.174;2023-06-10T01:55:55;3.60;;;3.35;;
50350;SDS011;36250;48.740;22.174;2023-06-10T01:58:21;7.35;;;3.70;;
50350;SDS011;36250;48.740;22.174;2023-06-10T02:00:46;5.97;;;3.88;;
50350;SDS011;36250;48.740;22.174;2023-06-10T02:03:12;5.28;;;4.60;;
50350;SDS011;36250;48.740;22.174;2023-06-10T02:05:37;9.90;;;4.50;;
50350;SDS011;36250;48.740;22.174;2023-06-10T02:08:02;15.40;;;5.47;;
50350;SDS011;36250;48.740;22.174;2023-06-10T02:10:28;5.07;;;4.20;;
50350;SDS011;36250;48.740;22.174;2023-06-10T02:12:54;12.50;;;4.65;;
50350;SDS011;36250;48.740;22.174;2023-06-10T02:15:20;7.20;;;4.57;;
50350;SDS011;36250;48.740;22.174;2023-06-10T02:17:45;5.82;;;4.90;;
50350;SDS011;36250;48.740;22.174;2023-06-10T02:20:10;7.90;;;4.38;;
50350;SDS011;36250;48.740;22.174;2023-06-10T02:22:37;9.05;;;4.10;;
50350;SDS011;36250;48.740;22.174;2023-06-10T02:25:02;6.50;;;4.65;;
50350;SDS011;36250;48.740;22.174;2023-06-10T02:27:28;9.50;;;4.32;;
50350;SDS011;36250;48.740;22.174;2023-06-10T02:29:55;5.70;;;4.90;;
50350;SDS011;36250;48.740;22.174;2023-06-10T02:32:20;6.97;;;4.30;;
50350;SDS011;36250;48.740;22.174;2023-06-10T02:34:46;10.05;;;5.50;;
50350;SDS011;36250;48.740;22.174;2023-06-10T02:37:11;7.15;;;4.85;;
50350;SDS011;36250;48.740;22.174;2023-06-10T02:39:36;7.97;;;4.90;;
50350;SDS011;36250;48.740;22.174;2023-06-10T02:42:02;7.55;;;4.45;;
50350;SDS011;36250;48.740;22.174;2023-06-10T02:44:27;7.20;;;4.25;;
50350;SDS011;36250;48.740;22.174;2023-06-10T02:46:53;5.50;;;5.00;;
50350;SDS011;36250;48.740;22.174;2023-06-10T02:49:18;7.80;;;4.50;;
50350;SDS011;36250;48.740;22.174;2023-06-10T02:51:43;3.95;;;3.55;;
50350;SDS011;36250;48.740;22.174;2023-06-10T02:54:09;7.25;;;4.18;;
50350;SDS011;36250;48.740;22.174;2023-06-10T02:56:34;11.82;;;4.50;;
50350;SDS011;36250;48.740;22.174;2023-06-10T02:59:00;7.90;;;3.80;;
50350;SDS011;36250;48.740;22.174;2023-06-10T03:01:25;8.63;;;4.72;;
50350;SDS011;36250;48.740;22.174;2023-06-10T03:03:51;5.53;;;4.03;;
50350;SDS011;36250;48.740;22.174;2023-06-10T03:06:17;6.53;;;3.90;;
50350;SDS011;36250;48.740;22.174;2023-06-10T03:08:43;6.40;;;4.30;;
50350;SDS011;36250;48.740;22.174;2023-06-10T03:11:09;7.70;;;3.85;;
50350;SDS011;36250;48.740;22.174;2023-06-10T03:13:35;6.53;;;4.20;;
50350;SDS011;36250;48.740;22.174;2023-06-10T03:16:00;6.80;;;3.88;;
50350;SDS011;36250;48.740;22.174;2023-06-10T03:18:28;4.18;;;3.78;;
50350;SDS011;36250;48.740;22.174;2023-06-10T03:20:56;6.57;;;4.10;;
50350;SDS011;36250;48.740;22.174;2023-06-10T03:23:22;4.47;;;4.03;;
50350;SDS011;36250;48.740;22.174;2023-06-10T03:25:48;4.47;;;3.60;;
50350;SDS011;36250;48.740;22.174;2023-06-10T03:28:13;4.85;;;3.88;;
50350;SDS011;36250;48.740;22.174;2023-06-10T03:30:38;5.00;;;3.80;;
50350;SDS011;36250;48.740;22.174;2023-06-10T03:33:03;8.38;;;4.28;;
50350;SDS011;36250;48.740;22.174;2023-06-10T03:35:29;5.38;;;3.83;;
50350;SDS011;36250;48.740;22.174;2023-06-10T03:37:54;5.30;;;3.90;;
50350;SDS011;36250;48.740;22.174;2023-06-10T03:40:20;6.35;;;4.20;;
50350;SDS011;36250;48.740;22.174;2023-06-10T03:42:45;10.23;;;4.18;;
50350;SDS011;36250;48.740;22.174;2023-06-10T03:45:11;10.02;;;4.30;;
50350;SDS011;36250;48.740;22.174;2023-06-10T03:47:37;4.65;;;3.95;;
50350;SDS011;36250;48.740;22.174;2023-06-10T03:50:03;10.77;;;4.03;;
50350;SDS011;36250;48.740;22.174;2023-06-10T03:52:29;4.05;;;3.63;;
50350;SDS011;36250;48.740;22.174;2023-06-10T03:54:55;6.25;;;4.15;;
50350;SDS011;36250;48.740;22.174;2023-06-10T03:57:20;9.68;;;3.90;;
50350;SDS011;36250;48.740;22.174;2023-06-10T03:59:45;4.82;;;3.60;;
50350;SDS011;36250;48.740;22.174;2023-06-10T04:02:11;7.82;;;4.15;;
50350;SDS011;36250;48.740;22.174;2023-06-10T04:04:36;13.07;;;5.05;;
50350;SDS011;36250;48.740;22.174;2023-06-10T04:07:02;10.10;;;4.22;;
50350;SDS011;36250;48.740;22.174;2023-06-10T04:09:29;9.27;;;5.20;;
50350;SDS011;36250;48.740;22.174;2023-06-10T04:11:54;5.80;;;4.95;;
50350;SDS011;36250;48.740;22.174;2023-06-10T04:14:19;9.45;;;4.80;;
50350;SDS011;36250;48.740;22.174;2023-06-10T04:16:45;7.72;;;4.63;;
50350;SDS011;36250;48.740;22.174;2023-06-10T04:19:10;10.45;;;4.10;;
50350;SDS011;36250;48.740;22.174;2023-06-10T04:21:35;9.65;;;4.50;;
50350;SDS011;36250;48.740;22.174;2023-06-10T04:24:01;6.47;;;4.47;;
50350;SDS011;36250;48.740;22.174;2023-06-10T04:26:27;6.30;;;3.83;;
50350;SDS011;36250;48.740;22.174;2023-06-10T04:28:52;5.95;;;4.40;;
50350;SDS011;36250;48.740;22.174;2023-06-10T04:31:18;16.58;;;5.13;;
50350;SDS011;36250;48.740;22.174;2023-06-10T04:33:44;9.88;;;4.80;;
50350;SDS011;36250;48.740;22.174;2023-06-10T04:36:10;8.70;;;4.22;;
50350;SDS011;36250;48.740;22.174;2023-06-10T04:38:35;7.50;;;4.38;;
50350;SDS011;36250;48.740;22.174;2023-06-10T04:41:00;8.32;;;4.22;;
50350;SDS011;36250;48.740;22.174;2023-06-10T04:43:26;8.55;;;4.00;;
50350;SDS011;36250;48.740;22.174;2023-06-10T04:45:53;11.20;;;4.75;;
50350;SDS011;36250;48.740;22.174;2023-06-10T04:48:19;10.10;;;4.20;;
50350;SDS011;36250;48.740;22.174;2023-06-10T04:50:44;4.03;;;3.70;;
50350;SDS011;36250;48.740;22.174;2023-06-10T04:53:09;12.18;;;4.45;;
50350;SDS011;36250;48.740;22.174;2023-06-10T04:55:35;4.43;;;4.03;;
50350;SDS011;36250;48.740;22.174;2023-06-10T04:58:01;6.22;;;3.78;;
50350;SDS011;36250;48.740;22.174;2023-06-10T05:00:26;7.30;;;4.28;;
50350;SDS011;36250;48.740;22.174;2023-06-10T05:02:52;6.40;;;4.15;;
50350;SDS011;36250;48.740;22.174;2023-06-10T05:05:18;6.10;;;3.88;;
50350;SDS011;36250;48.740;22.174;2023-06-10T05:07:43;8.80;;;3.22;;
50350;SDS011;36250;48.740;22.174;2023-06-10T05:10:08;5.32;;;3.78;;
50350;SDS011;36250;48.740;22.174;2023-06-10T05:12:34;8.45;;;4.28;;
50350;SDS011;36250;48.740;22.174;2023-06-10T05:15:00;10.45;;;3.47;;
50350;SDS011;36250;48.740;22.174;2023-06-10T05:17:25;5.53;;;3.75;;
50350;SDS011;36250;48.740;22.174;2023-06-10T05:19:50;8.65;;;4.00;;
50350;SDS011;36250;48.740;22.174;2023-06-10T05:22:16;13.60;;;4.10;;
50350;SDS011;36250;48.740;22.174;2023-06-10T05:24:43;9.27;;;3.83;;
50350;SDS011;36250;48.740;22.174;2023-06-10T05:27:09;15.50;;;4.32;;
50350;SDS011;36250;48.740;22.174;2023-06-10T05:29:35;7.95;;;3.97;;
50350;SDS011;36250;48.740;22.174;2023-06-10T05:32:00;5.93;;;4.20;;
50350;SDS011;36250;48.740;22.174;2023-06-10T05:34:28;4.20;;;3.70;;
50350;SDS011;36250;48.740;22.174;2023-06-10T05:36:54;8.45;;;3.70;;
50350;SDS011;36250;48.740;22.174;2023-06-10T05:39:19;8.45;;;4.30;;
50350;SDS011;36250;48.740;22.174;2023-06-10T05:41:45;6.20;;;3.95;;
50350;SDS011;36250;48.740;22.174;2023-06-10T05:44:11;5.85;;;3.70;;
50350;SDS011;36250;48.740;22.174;2023-06-10T05:46:36;7.63;;;3.97;;
50350;SDS011;36250;48.740;22.174;2023-06-10T05:49:01;7.47;;;3.67;;
50350;SDS011;36250;48.740;22.174;2023-06-10T05:51:27;9.55;;;3.80;;
50350;SDS011;36250;48.740;22.174;2023-06-10T05:53:53;6.97;;;3.72;;
50350;SDS011;36250;48.740;22.174;2023-06-10T05:56:19;6.35;;;3.17;;
50350;SDS011;36250;48.740;22.174;2023-06-10T05:58:46;4.03;;;3.38;;
50350;SDS011;36250;48.740;22.174;2023-06-10T06:01:11;5.10;;;3.05;;
50350;SDS011;36250;48.740;22.174;2023-06-10T06:03:37;6.68;;;2.50;;
50350;SDS011;36250;48.740;22.174;2023-06-10T06:06:02;5.28;;;2.80;;
50350;SDS011;36250;48.740;22.174;2023-06-10T06:08:28;3.47;;;3.20;;
50350;SDS011;36250;48.740;22.174;2023-06-10T06:10:54;3.80;;;3.40;;
50350;SDS011;36250;48.740;22.174;2023-06-10T06:13:19;6.72;;;3.10;;
50350;SDS011;36250;48.740;22.174;2023-06-10T06:15:45;7.53;;;3.22;;
50350;SDS011;36250;48.740;22.174;2023-06-10T06:18:10;7.63;;;3.78;;
50350;SDS011;36250;48.740;22.174;2023-06-10T06:20:35;4.53;;;2.80;;
50350;SDS011;36250;48.740;22.174;2023-06-10T06:23:01;3.65;;;3.05;;
50350;SDS011;36250;48.740;22.174;2023-06-10T06:25:26;5.93;;;3.15;;
50350;SDS011;36250;48.740;22.174;2023-06-10T06:27:51;11.02;;;3.50;;
50350;SDS011;36250;48.740;22.174;2023-06-10T06:30:17;5.43;;;3.30;;
50350;SDS011;36250;48.740;22.174;2023-06-10T06:32:42;7.60;;;3.25;;
50350;SDS011;36250;48.740;22.174;2023-06-10T06:35:07;4.90;;;3.75;;
50350;SDS011;36250;48.740;22.174;2023-06-10T06:37:33;3.42;;;2.60;;
50350;SDS011;36250;48.740;22.174;2023-06-10T06:39:59;7.82;;;3.03;;
50350;SDS011;36250;48.740;22.174;2023-06-10T06:42:24;4.93;;;3.03;;
50350;SDS011;36250;48.740;22.174;2023-06-10T06:44:50;4.88;;;2.97;;
50350;SDS011;36250;48.740;22.174;2023-06-10T06:47:15;5.57;;;3.95;;
50350;SDS011;36250;48.740;22.174;2023-06-10T06:49:44;4.13;;;3.58;;
50350;SDS011;36250;48.740;22.174;2023-06-10T06:52:10;5.18;;;3.90;;
50350;SDS011;36250;48.740;22.174;2023-06-10T06:54:35;7.03;;;3.70;;
50350;SDS011;36250;48.740;22.174;2023-06-10T06:57:01;4.13;;;3.28;;
50350;SDS011;36250;48.740;22.174;2023-06-10T06:59:27;8.68;;;3.58;;
50350;SDS011;36250;48.740;22.174;2023-06-10T07:01:52;4.70;;;3.35;;
50350;SDS011;36250;48.740;22.174;2023-06-10T07:04:19;5.78;;;3.00;;
50350;SDS011;36250;48.740;22.174;2023-06-10T07:06:46;7.28;;;3.85;;
50350;SDS011;36250;48.740;22.174;2023-06-10T07:09:12;8.45;;;3.30;;
50350;SDS011;36250;48.740;22.174;2023-06-10T07:11:37;3.65;;;3.10;;
50350;SDS011;36250;48.740;22.174;2023-06-10T07:14:03;7.10;;;3.47;;
50350;SDS011;36250;48.740;22.174;2023-06-10T07:16:28;6.80;;;3.08;;
50350;SDS011;36250;48.740;22.174;2023-06-10T07:18:53;7.43;;;2.83;;
50350;SDS011;36250;48.740;22.174;2023-06-10T07:21:19;5.10;;;3.35;;
50350;SDS011;36250;48.740;22.174;2023-06-10T07:23:44;8.02;;;3.10;;
50350;SDS011;36250;48.740;22.174;2023-06-10T07:26:11;5.97;;;3.20;;
50350;SDS011;36250;48.740;22.174;2023-06-10T07:28:38;6.63;;;3.22;;
50350;SDS011;36250;48.740;22.174;2023-06-10T07:31:04;6.35;;;3.30;;
50350;SDS011;36250;48.740;22.174;2023-06-10T07:33:29;4.78;;;3.28;;
50350;SDS011;36250;48.740;22.174;2023-06-10T07:35:55;8.93;;;3.50;;
50350;SDS011;36250;48.740;22.174;2023-06-10T07:38:20;9.15;;;3.30;;
50350;SDS011;36250;48.740;22.174;2023-06-10T07:40:45;4.20;;;3.10;;
50350;SDS011;36250;48.740;22.174;2023-06-10T07:43:11;3.17;;;2.70;;
50350;SDS011;36250;48.740;22.174;2023-06-10T07:45:36;4.55;;;2.95;;
50350;SDS011;36250;48.740;22.174;2023-06-10T07:48:04;6.25;;;3.30;;
50350;SDS011;36250;48.740;22.174;2023-06-10T07:50:29;10.57;;;3.15;;
50350;SDS011;36250;48.740;22.174;2023-06-10T07:52:55;3.38;;;2.63;;
50350;SDS011;36250;48.740;22.174;2023-06-10T07:55:20;4.70;;;2.90;;
50350;SDS011;36250;48.740;22.174;2023-06-10T07:57:45;10.90;;;3.35;;
50350;SDS011;36250;48.740;22.174;2023-06-10T08:00:11;10.68;;;4.20;;
50350;SDS011;36250;48.740;22.174;2023-06-10T08:02:36;3.95;;;2.88;;
50350;SDS011;36250;48.740;22.174;2023-06-10T08:05:02;4.88;;;3.20;;
50350;SDS011;36250;48.740;22.174;2023-06-10T08:07:28;5.75;;;3.17;;
50350;SDS011;36250;48.740;22.174;2023-06-10T08:09:53;4.82;;;3.13;;
50350;SDS011;36250;48.740;22.174;2023-06-10T08:12:18;5.55;;;3.35;;
50350;SDS011;36250;48.740;22.174;2023-06-10T08:14:45;4.40;;;2.70;;
50350;SDS011;36250;48.740;22.174;2023-06-10T08:17:11;2.70;;;2.50;;
50350;SDS011;36250;48.740;22.174;2023-06-10T08:19:36;2.63;;;2.42;;
50350;SDS011;36250;48.740;22.174;2023-06-10T08:22:01;2.72;;;2.33;;
50350;SDS011;36250;48.740;22.174;2023-06-10T08:24:27;7.43;;;2.47;;
50350;SDS011;36250;48.740;22.174;2023-06-10T08:26:52;3.60;;;3.20;;
50350;SDS011;36250;48.740;22.174;2023-06-10T08:29:17;3.47;;;2.78;;
50350;SDS011;36250;48.740;22.174;2023-06-10T08:31:43;4.47;;;2.60;;
50350;SDS011;36250;48.740;22.174;2023-06-10T08:34:09;5.05;;;2.80;;
50350;SDS011;36250;48.740;22.174;2023-06-10T08:36:35;3.13;;;2.83;;
50350;SDS011;36250;48.740;22.174;2023-06-10T08:39:00;3.97;;;3.08;;
50350;SDS011;36250;48.740;22.174;2023-06-10T08:41:28;3.60;;;2.88;;
50350;SDS011;36250;48.740;22.174;2023-06-10T08:46:47;5.07;;;2.85;;
50350;SDS011;36250;48.740;22.174;2023-06-10T08:49:17;3.40;;;2.75;;
50350;SDS011;36250;48.740;22.174;2023-06-10T08:51:46;3.15;;;2.90;;
50350;SDS011;36250;48.740;22.174;2023-06-10T08:54:20;3.95;;;2.67;;
50350;SDS011;36250;48.740;22.174;2023-06-10T08:56:48;3.20;;;2.47;;
50350;SDS011;36250;48.740;22.174;2023-06-10T08:59:18;4.70;;;2.47;;
50350;SDS011;36250;48.740;22.174;2023-06-10T09:01:43;4.20;;;2.60;;
50350;SDS011;36250;48.740;22.174;2023-06-10T09:04:09;3.42;;;2.55;;
50350;SDS011;36250;48.740;22.174;2023-06-10T09:06:35;6.40;;;2.67;;
50350;SDS011;36250;48.740;22.174;2023-06-10T09:09:03;2.58;;;1.92;;
50350;SDS011;36250;48.740;22.174;2023-06-10T09:11:31;4.00;;;2.20;;
50350;SDS011;36250;48.740;22.174;2023-06-10T09:13:56;4.47;;;2.17;;
50350;SDS011;36250;48.740;22.174;2023-06-10T09:16:22;5.03;;;2.25;;
50350;SDS011;36250;48.740;22.174;2023-06-10T09:18:48;5.53;;;2.45;;
50350;SDS011;36250;48.740;22.174;2023-06-10T09:21:13;3.10;;;2.47;;
50350;SDS011;36250;48.740;22.174;2023-06-10T09:23:39;2.30;;;2.15;;
50350;SDS011;36250;48.740;22.174;2023-06-10T09:26:08;3.35;;;2.20;;
50350;SDS011;36250;48.740;22.174;2023-06-10T09:28:35;2.60;;;2.13;;
50350;SDS011;36250;48.740;22.174;2023-06-10T09:31:03;5.18;;;2.53;;
50350;SDS011;36250;48.740;22.174;2023-06-10T09:33:36;4.53;;;2.00;;
50350;SDS011;36250;48.740;22.174;2023-06-10T09:36:02;3.38;;;2.97;;
50350;SDS011;36250;48.740;22.174;2023-06-10T09:38:31;2.80;;;2.30;;
50350;SDS011;36250;48.740;22.174;2023-06-10T09:40:58;6.88;;;2.60;;
50350;SDS011;36250;48.740;22.174;2023-06-10T09:43:38;5.35;;;2.60;;
50350;SDS011;36250;48.740;22.174;2023-06-10T09:46:05;3.42;;;2.47;;
50350;SDS011;36250;48.740;22.174;2023-06-10T09:48:34;2.75;;;1.77;;
50350;SDS011;36250;48.740;22.174;2023-06-10T09:51:00;5.55;;;2.40;;
50350;SDS011;36250;48.740;22.174;2023-06-10T09:53:25;3.50;;;2.25;;
50350;SDS011;36250;48.740;22.174;2023-06-10T09:55:51;2.50;;;2.30;;
50350;SDS011;36250;48.740;22.174;2023-06-10T09:58:17;6.55;;;2.80;;
50350;SDS011;36250;48.740;22.174;2023-06-10T10:00:42;2.20;;;2.00;;
50350;SDS011;36250;48.740;22.174;2023-06-10T10:03:07;9.75;;;2.67;;
50350;SDS011;36250;48.740;22.174;2023-06-10T10:05:33;7.45;;;2.60;;
50350;SDS011;36250;48.740;22.174;2023-06-10T10:07:58;3.20;;;2.22;;
50350;SDS011;36250;48.740;22.174;2023-06-10T10:10:24;4.13;;;2.80;;
50350;SDS011;36250;48.740;22.174;2023-06-10T10:12:51;6.93;;;2.15;;
50350;SDS011;36250;48.740;22.174;2023-06-10T10:15:21;2.65;;;2.40;;
50350;SDS011;36250;48.740;22.174;2023-06-10T10:20:35;5.47;;;2.10;;
50350;SDS011;36250;48.740;22.174;2023-06-10T10:23:07;2.63;;;2.22;;
50350;SDS011;36250;48.740;22.174;2023-06-10T10:25:37;2.50;;;2.20;;
50350;SDS011;36250;48.740;22.174;2023-06-10T10:28:11;3.25;;;1.92;;
50350;SDS011;36250;48.740;22.174;2023-06-10T10:30:39;2.78;;;2.22;;
50350;SDS011;36250;48.740;22.174;2023-06-10T10:33:12;3.10;;;2.03;;
50350;SDS011;36250;48.740;22.174;2023-06-10T10:35:41;3.95;;;2.00;;
50350;SDS011;36250;48.740;22.174;2023-06-10T10:38:06;6.80;;;2.63;;
50350;SDS011;36250;48.740;22.174;2023-06-10T10:40:33;5.18;;;1.98;;
50350;SDS011;36250;48.740;22.174;2023-06-10T10:42:59;2.22;;;2.00;;
50350;SDS011;36250;48.740;22.174;2023-06-10T10:45:27;4.57;;;1.90;;
50350;SDS011;36250;48.740;22.174;2023-06-10T10:47:53;5.35;;;1.90;;
50350;SDS011;36250;48.740;22.174;2023-06-10T10:50:21;5.45;;;2.30;;
50350;SDS011;36250;48.740;22.174;2023-06-10T10:52:58;9.82;;;2.78;;
50350;SDS011;36250;48.740;22.174;2023-06-10T10:55:26;5.70;;;2.08;;
50350;SDS011;36250;48.740;22.174;2023-06-10T10:57:56;2.10;;;2.00;;
50350;SDS011;36250;48.740;22.174;2023-06-10T11:00:27;2.30;;;2.05;;
50350;SDS011;36250;48.740;22.174;2023-06-10T11:02:59;2.13;;;1.92;;
50350;SDS011;36250;48.740;22.174;2023-06-10T11:08:04;3.60;;;1.85;;
50350;SDS011;36250;48.740;22.174;2023-06-10T11:10:35;4.03;;;1.88;;
50350;SDS011;36250;48.740;22.174;2023-06-10T11:13:14;1.83;;;1.73;;
50350;SDS011;36250;48.740;22.174;2023-06-10T11:15:44;2.08;;;1.73;;
50350;SDS011;36250;48.740;22.174;2023-06-10T11:29:02;3.40;;;2.05;;
50350;SDS011;36250;48.740;22.174;2023-06-10T11:31:38;6.72;;;2.50;;
50350;SDS011;36250;48.740;22.174;2023-06-10T11:34:07;3.60;;;2.17;;
50350;SDS011;36250;48.740;22.174;2023-06-10T11:36:34;6.88;;;3.28;;
50350;SDS011;36250;48.740;22.174;2023-06-10T11:41:31;3.33;;;2.20;;
50350;SDS011;36250;48.740;22.174;2023-06-10T11:44:04;2.88;;;2.10;;
50350;SDS011;36250;48.740;22.174;2023-06-10T11:46:33;2.55;;;2.28;;
50350;SDS011;36250;48.740;22.174;2023-06-10T11:48:59;2.30;;;1.85;;
50350;SDS011;36250;48.740;22.174;2023-06-10T11:51:25;2.50;;;2.08;;
50350;SDS011;36250;48.740;22.174;2023-06-10T11:53:52;7.90;;;2.33;;
50350;SDS011;36250;48.740;22.174;2023-06-10T11:56:22;4.20;;;2.40;;
50350;SDS011;36250;48.740;22.174;2023-06-10T12:01:22;4.65;;;2.10;;
50350;SDS011;36250;48.740;22.174;2023-06-10T12:04:02;3.78;;;2.20;;
50350;SDS011;36250;48.740;22.174;2023-06-10T12:06:27;4.63;;;2.20;;
50350;SDS011;36250;48.740;22.174;2023-06-10T12:09:02;5.88;;;2.53;;
50350;SDS011;36250;48.740;22.174;2023-06-10T12:11:27;3.75;;;2.30;;
50350;SDS011;36250;48.740;22.174;2023-06-10T12:13:53;2.38;;;2.00;;
50350;SDS011;36250;48.740;22.174;2023-06-10T12:16:18;2.35;;;2.20;;
50350;SDS011;36250;48.740;22.174;2023-06-10T12:18:44;4.00;;;2.03;;
50350;SDS011;36250;48.740;22.174;2023-06-10T12:21:23;5.35;;;3.05;;
50350;SDS011;36250;48.740;22.174;2023-06-10T12:26:37;8.38;;;3.33;;
50350;SDS011;36250;48.740;22.174;2023-06-10T12:29:22;3.33;;;2.15;;
50350;SDS011;36250;48.740;22.174;2023-06-10T12:31:54;3.50;;;2.35;;
50350;SDS011;36250;48.740;22.174;2023-06-10T12:34:31;2.55;;;2.35;;
50350;SDS011;36250;48.740;22.174;2023-06-10T12:36:59;5.05;;;2.55;;
50350;SDS011;36250;48.740;22.174;2023-06-10T12:39:25;9.05;;;6.85;;
50350;SDS011;36250;48.740;22.174;2023-06-10T12:41:51;18.50;;;12.38;;
50350;SDS011;36250;48.740;22.174;2023-06-10T12:44:17;33.70;;;22.35;;
50350;SDS011;36250;48.740;22.174;2023-06-10T12:46:42;101.80;;;66.97;;
50350;SDS011;36250;48.740;22.174;2023-06-10T12:49:08;58.03;;;40.22;;
50350;SDS011;36250;48.740;22.174;2023-06-10T12:51:34;36.33;;;25.70;;
50350;SDS011;36250;48.740;22.174;2023-06-10T12:54:00;31.95;;;25.88;;
50350;SDS011;36250;48.740;22.174;2023-06-10T12:56:25;19.03;;;12.40;;
50350;SDS011;36250;48.740;22.174;2023-06-10T12:58:51;11.57;;;4.38;;
50350;SDS011;36250;48.740;22.174;2023-06-10T13:01:16;7.28;;;4.95;;
50350;SDS011;36250;48.740;22.174;2023-06-10T13:03:42;17.40;;;8.27;;
50350;SDS011;36250;48.740;22.174;2023-06-10T13:06:07;11.60;;;8.20;;
50350;SDS011;36250;48.740;22.174;2023-06-10T13:08:32;10.07;;;4.75;;
50350;SDS011;36250;48.740;22.174;2023-06-10T13:10:58;8.35;;;4.18;;
50350;SDS011;36250;48.740;22.174;2023-06-10T13:13:24;6.60;;;3.85;;
50350;SDS011;36250;48.740;22.174;2023-06-10T13:15:50;2.80;;;2.60;;
50350;SDS011;36250;48.740;22.174;2023-06-10T13:18:16;4.00;;;2.33;;
50350;SDS011;36250;48.740;22.174;2023-06-10T13:20:43;4.68;;;2.55;;
50350;SDS011;36250;48.740;22.174;2023-06-10T13:23:09;3.35;;;2.58;;
50350;SDS011;36250;48.740;22.174;2023-06-10T13:25:34;3.35;;;2.30;;
50350;SDS011;36250;48.740;22.174;2023-06-10T13:28:00;4.55;;;2.28;;
50350;SDS011;36250;48.740;22.174;2023-06-10T13:30:26;2.90;;;2.50;;
50350;SDS011;36250;48.740;22.174;2023-06-10T13:32:51;2.83;;;1.90;;
50350;SDS011;36250;48.740;22.174;2023-06-10T13:35:17;5.60;;;2.65;;
50350;SDS011;36250;48.740;22.174;2023-06-10T13:37:42;3.60;;;2.15;;
50350;SDS011;36250;48.740;22.174;2023-06-10T13:40:08;2.70;;;2.35;;
50350;SDS011;36250;48.740;22.174;2023-06-10T13:42:34;3.88;;;2.80;;
50350;SDS011;36250;48.740;22.174;2023-06-10T13:45:01;7.97;;;2.90;;
50350;SDS011;36250;48.740;22.174;2023-06-10T13:47:27;7.65;;;3.67;;
50350;SDS011;36250;48.740;22.174;2023-06-10T13:49:53;2.70;;;2.50;;
50350;SDS011;36250;48.740;22.174;2023-06-10T13:52:18;2.15;;;1.95;;
50350;SDS011;36250;48.740;22.174;2023-06-10T13:54:43;2.40;;;2.08;;
50350;SDS011;36250;48.740;22.174;2023-06-10T13:57:09;6.43;;;2.97;;
50350;SDS011;36250;48.740;22.174;2023-06-10T13:59:35;6.05;;;2.88;;
50350;SDS011;36250;48.740;22.174;2023-06-10T14:02:01;2.83;;;2.58;;
50350;SDS011;36250;48.740;22.174;2023-06-10T14:04:27;3.42;;;2.33;;
50350;SDS011;36250;48.740;22.174;2023-06-10T14:06:53;4.18;;;2.80;;
50350;SDS011;36250;48.740;22.174;2023-06-10T14:09:18;3.30;;;3.10;;
50350;SDS011;36250;48.740;22.174;2023-06-10T14:11:44;5.68;;;4.18;;
50350;SDS011;36250;48.740;22.174;2023-06-10T14:14:09;3.45;;;3.15;;
50350;SDS011;36250;48.740;22.174;2023-06-10T14:16:35;4.13;;;3.72;;
50350;SDS011;36250;48.740;22.174;2023-06-10T14:19:00;3.70;;;3.38;;
50350;SDS011;36250;48.740;22.174;2023-06-10T14:21:26;3.75;;;3.10;;
50350;SDS011;36250;48.740;22.174;2023-06-10T14:23:51;7.97;;;4.30;;
50350;SDS011;36250;48.740;22.174;2023-06-10T14:26:18;4.32;;;3.78;;
50350;SDS011;36250;48.740;22.174;2023-06-10T14:28:44;4.05;;;3.65;;
50350;SDS011;36250;48.740;22.174;2023-06-10T14:31:09;7.13;;;4.20;;
50350;SDS011;36250;48.740;22.174;2023-06-10T14:33:35;4.93;;;4.05;;
50350;SDS011;36250;48.740;22.174;2023-06-10T14:36:00;4.35;;;3.95;;
50350;SDS011;36250;48.740;22.174;2023-06-10T14:38:26;5.38;;;3.85;;
50350;SDS011;36250;48.740;22.174;2023-06-10T14:40:51;7.60;;;4.65;;
50350;SDS011;36250;48.740;22.174;2023-06-10T14:43:17;5.35;;;4.85;;
50350;SDS011;36250;48.740;22.174;2023-06-10T14:45:43;4.60;;;4.20;;
50350;SDS011;36250;48.740;22.174;2023-06-10T14:48:09;8.68;;;4.10;;
50350;SDS011;36250;48.740;22.174;2023-06-10T14:50:34;5.45;;;4.68;;
50350;SDS011;36250;48.740;22.174;2023-06-10T14:53:00;5.32;;;4.28;;
50350;SDS011;36250;48.740;22.174;2023-06-10T14:55:26;4.97;;;4.57;;
50350;SDS011;36250;48.740;22.174;2023-06-10T14:57:51;8.75;;;5.80;;
50350;SDS011;36250;48.740;22.174;2023-06-10T15:00:17;5.72;;;5.07;;
50350;SDS011;36250;48.740;22.174;2023-06-10T15:02:47;8.02;;;5.28;;